createdAt,value
2023-03-07T00:00:36.919Z,18.00
2023-03-07T00:03:12.400Z,19.70
2023-03-07T00:05:44.767Z,29.90
2023-03-07T00:08:16.605Z,28.60
2023-03-07T00:10:48.283Z,22.63
2023-03-07T00:13:19.981Z,18.33
2023-03-07T00:15:51.696Z,17.73
2023-03-07T00:18:24.200Z,20.52
2023-03-07T00:21:00.394Z,18.43
2023-03-07T00:23:33.677Z,18.63
2023-03-07T00:26:26.713Z,20.67
2023-03-07T00:28:58.404Z,20.53
2023-03-07T00:31:30.106Z,20.90
2023-03-07T00:34:02.257Z,15.13
2023-03-07T00:36:33.964Z,16.10
2023-03-07T00:39:05.876Z,21.30
2023-03-07T00:41:37.637Z,22.80
2023-03-07T00:44:09.405Z,20.33
2023-03-07T00:46:41.126Z,17.83
2023-03-07T00:49:13.063Z,24.00
2023-03-07T00:51:44.757Z,16.97
2023-03-07T00:54:16.513Z,20.27
2023-03-07T00:56:48.265Z,24.77
2023-03-07T00:59:20.078Z,21.00
2023-03-07T01:01:52.279Z,16.20
2023-03-07T01:04:24.011Z,15.83
2023-03-07T01:06:55.704Z,18.23
2023-03-07T01:09:27.419Z,17.07
2023-03-07T01:11:59.191Z,18.47
2023-03-07T01:14:30.895Z,17.70
2023-03-07T01:17:02.657Z,17.83
2023-03-07T01:19:34.342Z,15.27
2023-03-07T01:22:06.012Z,18.67
2023-03-07T01:24:39.392Z,16.20
2023-03-07T01:27:11.146Z,15.50
2023-03-07T01:29:42.867Z,18.67
2023-03-07T01:32:14.681Z,20.40
2023-03-07T01:34:46.868Z,17.98
2023-03-07T01:37:19.121Z,18.03
2023-03-07T01:39:52.755Z,17.77
2023-03-07T01:42:24.466Z,20.87
2023-03-07T01:45:06.514Z,15.13
2023-03-07T01:47:38.302Z,17.57
2023-03-07T01:50:17.580Z,16.30
2023-03-07T01:52:53.505Z,18.33
2023-03-07T01:55:30.878Z,17.80
2023-03-07T01:58:13.752Z,18.37
2023-03-07T02:00:45.716Z,18.10
2023-03-07T02:03:46.323Z,21.00
2023-03-07T02:06:19.200Z,17.57
2023-03-07T02:08:53.081Z,15.20
2023-03-07T02:11:26.020Z,19.90
2023-03-07T02:13:57.830Z,15.67
2023-03-07T02:16:29.666Z,21.77
2023-03-07T02:19:01.641Z,19.47
2023-03-07T02:21:48.741Z,20.10
2023-03-07T02:24:32.260Z,19.70
2023-03-07T02:27:05.353Z,14.10
2023-03-07T02:29:37.055Z,20.63
2023-03-07T02:32:09.292Z,18.87
2023-03-07T02:34:41.029Z,16.43
2023-03-07T02:37:37.449Z,17.00
2023-03-07T02:40:12.449Z,16.33
2023-03-07T02:42:45.240Z,19.70
2023-03-07T02:45:19.125Z,22.47
2023-03-07T02:47:50.898Z,19.50
2023-03-07T02:50:22.614Z,18.50
2023-03-07T02:52:54.439Z,17.77
2023-03-07T02:55:26.369Z,17.90
2023-03-07T02:57:58.080Z,20.03
2023-03-07T03:00:30.036Z,16.67
2023-03-07T03:03:01.760Z,16.40
2023-03-07T03:05:33.487Z,18.80
2023-03-07T03:08:06.019Z,16.13
2023-03-07T03:10:37.711Z,18.10
2023-03-07T03:13:09.408Z,15.33
2023-03-07T03:15:41.102Z,17.13
2023-03-07T03:18:12.765Z,17.27
2023-03-07T03:20:44.585Z,18.60
2023-03-07T03:23:16.279Z,20.83
2023-03-07T03:26:01.283Z,21.47
2023-03-07T03:28:33.641Z,22.03
2023-03-07T03:31:08.924Z,17.93
2023-03-07T03:33:41.651Z,21.50
2023-03-07T03:36:16.692Z,20.70
2023-03-07T03:38:48.405Z,18.87
2023-03-07T03:41:20.244Z,17.13
2023-03-07T03:43:52.477Z,22.13
2023-03-07T03:46:24.306Z,20.23
2023-03-07T03:48:56.327Z,16.87
2023-03-07T03:51:28.150Z,20.60
2023-03-07T03:53:59.855Z,25.30
2023-03-07T03:56:31.534Z,16.30
2023-03-07T03:59:03.293Z,16.00
2023-03-07T04:01:35.260Z,19.50
2023-03-07T04:04:06.923Z,18.57
2023-03-07T04:06:38.749Z,20.90
2023-03-07T04:09:10.940Z,16.10
2023-03-07T04:11:42.652Z,22.00
2023-03-07T04:14:14.406Z,19.73
2023-03-07T04:16:47.327Z,22.37
2023-03-07T04:19:19.664Z,18.13
2023-03-07T04:21:52.352Z,19.60
2023-03-07T04:24:24.083Z,20.13
2023-03-07T04:26:55.775Z,20.03
2023-03-07T04:29:27.483Z,17.93
2023-03-07T04:31:59.513Z,18.27
2023-03-07T04:34:31.322Z,22.57
2023-03-07T04:37:03.039Z,19.40
2023-03-07T04:39:34.754Z,15.77
2023-03-07T04:42:06.650Z,19.63
2023-03-07T04:44:38.372Z,17.50
2023-03-07T04:47:10.058Z,18.30
2023-03-07T04:49:41.749Z,17.10
2023-03-07T04:52:13.427Z,19.93
2023-03-07T04:54:45.200Z,22.47
2023-03-07T04:57:16.886Z,21.47
2023-03-07T04:59:48.573Z,23.17
2023-03-07T05:02:20.280Z,21.00
2023-03-07T05:04:51.940Z,16.87
2023-03-07T05:07:23.681Z,17.43
2023-03-07T05:09:55.689Z,18.27
2023-03-07T05:12:27.521Z,18.90
2023-03-07T05:15:00.834Z,18.97
2023-03-07T05:17:32.548Z,19.33
2023-03-07T05:20:04.924Z,18.83
2023-03-07T05:22:37.097Z,20.20
2023-03-07T05:25:09.427Z,23.17
2023-03-07T05:27:41.211Z,20.67
2023-03-07T05:30:13.401Z,16.37
2023-03-07T05:32:45.117Z,19.30
2023-03-07T05:35:16.894Z,15.83
2023-03-07T05:37:48.688Z,25.10
2023-03-07T05:40:20.408Z,16.60
2023-03-07T05:42:52.086Z,11.73
2023-03-07T05:45:23.849Z,14.47
2023-03-07T05:47:55.550Z,17.67
2023-03-07T05:50:27.255Z,20.47
2023-03-07T05:52:58.987Z,15.20
2023-03-07T05:55:30.830Z,15.63
2023-03-07T05:58:02.819Z,17.20
2023-03-07T06:00:34.472Z,17.93
2023-03-07T06:03:06.225Z,13.70
2023-03-07T06:05:39.160Z,18.00
2023-03-07T06:08:10.852Z,18.40
2023-03-07T06:10:43.071Z,21.52
2023-03-07T06:13:18.362Z,15.00
2023-03-07T06:15:54.679Z,15.17
2023-03-07T06:18:26.747Z,15.63
2023-03-07T06:21:04.150Z,17.37
2023-03-07T06:23:37.109Z,17.53
2023-03-07T06:26:12.280Z,14.33
2023-03-07T06:28:44.112Z,17.00
2023-03-07T06:31:17.589Z,20.47
2023-03-07T06:33:49.493Z,17.30
2023-03-07T06:36:21.569Z,17.93
2023-03-07T06:38:53.375Z,24.10
2023-03-07T06:41:25.124Z,15.40
2023-03-07T06:43:56.836Z,15.57
2023-03-07T06:46:28.599Z,14.70
2023-03-07T06:49:00.276Z,15.00
2023-03-07T06:51:31.986Z,19.87
2023-03-07T06:54:04.984Z,13.87
2023-03-07T06:56:36.751Z,16.10
2023-03-07T06:59:08.548Z,11.57
2023-03-07T07:01:40.388Z,17.60
2023-03-07T07:04:12.228Z,16.70
2023-03-07T07:06:43.967Z,13.63
2023-03-07T07:09:15.681Z,11.10
2023-03-07T07:11:47.410Z,12.80
2023-03-07T07:14:19.141Z,13.40
2023-03-07T07:16:50.985Z,13.13
2023-03-07T07:19:22.713Z,12.77
2023-03-07T07:21:54.530Z,15.73
2023-03-07T07:24:26.662Z,12.13
2023-03-07T07:26:58.319Z,13.00
2023-03-07T07:29:29.971Z,10.67
2023-03-07T07:32:01.724Z,15.70
2023-03-07T07:34:33.463Z,15.23
2023-03-07T07:37:05.267Z,19.87
2023-03-07T07:39:37.015Z,13.93
2023-03-07T07:42:08.760Z,15.50
2023-03-07T07:44:40.455Z,16.50
2023-03-07T07:47:12.338Z,13.87
2023-03-07T07:49:44.039Z,16.50
2023-03-07T07:52:15.703Z,13.13
2023-03-07T07:54:47.379Z,10.40
2023-03-07T07:57:20.045Z,14.43
2023-03-07T07:59:53.499Z,13.63
2023-03-07T08:02:25.886Z,13.82
2023-03-07T08:04:57.645Z,14.90
2023-03-07T08:07:29.310Z,14.30
2023-03-07T08:10:01.012Z,11.83
2023-03-07T08:12:32.726Z,13.50
2023-03-07T08:15:04.867Z,16.67
2023-03-07T08:17:36.766Z,17.90
2023-03-07T08:20:09.986Z,13.37
2023-03-07T08:22:43.529Z,16.27
2023-03-07T08:25:22.436Z,13.97
2023-03-07T08:27:55.295Z,15.43
2023-03-07T08:30:29.670Z,13.80
2023-03-07T08:33:01.681Z,13.83
2023-03-07T08:35:33.466Z,16.40
2023-03-07T08:38:05.185Z,16.13
2023-03-07T08:40:36.841Z,14.93
2023-03-07T08:43:08.508Z,17.10
2023-03-07T08:45:40.536Z,13.73
2023-03-07T08:48:12.243Z,13.03
2023-03-07T08:50:43.912Z,17.90
2023-03-07T08:53:16.341Z,11.33
2023-03-07T08:55:48.306Z,15.37
2023-03-07T08:58:20.040Z,11.20
2023-03-07T09:00:51.845Z,13.70
2023-03-07T09:03:23.594Z,12.03
2023-03-07T09:05:55.303Z,8.60
2023-03-07T09:08:27.194Z,12.53
2023-03-07T09:11:03.605Z,12.43
2023-03-07T09:13:43.116Z,17.03
2023-03-07T09:16:23.369Z,9.67
2023-03-07T09:18:55.150Z,13.93
2023-03-07T09:21:26.880Z,9.30
2023-03-07T09:23:58.710Z,10.23
2023-03-07T09:26:30.484Z,11.17
2023-03-07T09:29:02.195Z,15.55
2023-03-07T09:31:34.265Z,10.97
2023-03-07T09:34:06.019Z,12.00
2023-03-07T09:36:37.765Z,10.07
2023-03-07T09:39:14.297Z,10.97
2023-03-07T09:41:59.231Z,10.47
2023-03-07T09:44:39.906Z,11.30
2023-03-07T09:47:33.262Z,17.03
2023-03-07T09:50:16.032Z,11.80
2023-03-07T09:52:47.932Z,16.40
2023-03-07T09:55:21.849Z,11.97
2023-03-07T09:58:00.650Z,13.47
2023-03-07T10:00:48.025Z,9.20
2023-03-07T10:03:34.134Z,11.50
2023-03-07T10:06:20.835Z,14.27
2023-03-07T10:08:54.431Z,14.73
2023-03-07T10:12:11.500Z,12.73
2023-03-07T10:15:15.725Z,11.57
2023-03-07T10:18:15.539Z,11.93
2023-03-07T10:21:26.586Z,8.30
2023-03-07T10:24:26.253Z,14.53
2023-03-07T10:27:04.316Z,17.40
2023-03-07T10:29:48.690Z,15.47
2023-03-07T10:32:41.281Z,9.20
2023-03-07T10:35:15.701Z,11.23
2023-03-07T10:38:21.563Z,13.07
2023-03-07T10:41:06.945Z,14.30
2023-03-07T10:43:40.457Z,12.27
2023-03-07T10:46:44.125Z,12.57
2023-03-07T10:49:32.270Z,12.33
2023-03-07T10:52:12.510Z,16.00
2023-03-07T10:54:44.281Z,12.80
2023-03-07T10:57:18.391Z,10.17
2023-03-07T10:59:50.361Z,16.43
2023-03-07T11:02:22.814Z,16.37
2023-03-07T11:04:54.753Z,21.63
2023-03-07T11:07:32.608Z,13.93
2023-03-07T11:10:25.033Z,19.10
2023-03-07T11:12:56.932Z,16.33
2023-03-07T11:15:28.797Z,11.77
2023-03-07T11:18:00.489Z,12.10
2023-03-07T11:20:51.553Z,11.90
2023-03-07T11:23:31.479Z,12.97
2023-03-07T11:26:21.624Z,10.80
2023-03-07T11:29:13.405Z,12.40
2023-03-07T11:32:11.662Z,19.20
2023-03-07T11:35:04.221Z,17.63
2023-03-07T11:37:49.100Z,14.40
2023-03-07T11:40:29.510Z,14.67
2023-03-07T11:43:21.822Z,16.40
2023-03-07T11:46:00.806Z,10.20
2023-03-07T11:48:52.292Z,13.00
2023-03-07T11:51:50.325Z,19.40
2023-03-07T11:54:58.445Z,14.17
2023-03-07T11:58:00.925Z,13.30
2023-03-07T12:01:11.964Z,11.07
2023-03-07T12:04:42.985Z,11.87
2023-03-07T12:07:51.088Z,14.40
2023-03-07T12:10:41.263Z,16.57
2023-03-07T12:13:21.666Z,12.33
2023-03-07T12:16:15.400Z,13.63
2023-03-07T12:19:08.226Z,9.50
2023-03-07T12:21:52.057Z,13.67
2023-03-07T12:24:31.194Z,14.00
2023-03-07T12:27:15.494Z,12.17
2023-03-07T12:29:57.509Z,11.30
2023-03-07T12:32:31.171Z,13.00
2023-03-07T12:35:18.201Z,11.73
2023-03-07T12:37:58.037Z,13.37
2023-03-07T12:40:42.034Z,9.87
2023-03-07T12:43:31.843Z,15.53
2023-03-07T12:46:23.731Z,11.97
2023-03-07T12:49:16.608Z,10.70
2023-03-07T12:51:56.751Z,9.73
2023-03-07T12:54:30.159Z,12.33
2023-03-07T12:57:11.694Z,10.23
2023-03-07T12:59:44.206Z,11.23
2023-03-07T13:02:22.116Z,9.40
2023-03-07T13:04:53.852Z,9.80
2023-03-07T13:07:28.584Z,6.93
2023-03-07T13:10:05.855Z,11.10
2023-03-07T13:12:37.978Z,9.67
2023-03-07T13:15:18.599Z,8.80
2023-03-07T13:17:50.206Z,7.73
2023-03-07T13:20:27.862Z,9.03
2023-03-07T13:23:11.647Z,9.50
2023-03-07T13:26:06.039Z,6.83
2023-03-07T13:28:46.138Z,7.73
2023-03-07T13:31:20.681Z,8.20
2023-03-07T13:33:53.014Z,10.60
2023-03-07T13:36:37.832Z,12.90
2023-03-07T13:39:35.373Z,8.63
2023-03-07T13:42:46.590Z,8.30
2023-03-07T13:45:37.158Z,9.23
2023-03-07T13:48:33.218Z,9.37
2023-03-07T13:51:08.540Z,8.53
2023-03-07T13:53:44.867Z,8.47
2023-03-07T13:56:16.509Z,6.50
2023-03-07T13:59:06.717Z,7.53
2023-03-07T14:01:58.566Z,8.53
2023-03-07T14:04:54.244Z,7.10
2023-03-07T14:07:35.766Z,7.68
2023-03-07T14:10:45.875Z,7.17
2023-03-07T14:13:56.906Z,6.83
2023-03-07T14:16:35.218Z,6.77
2023-03-07T14:19:15.360Z,6.17
2023-03-07T14:21:47.034Z,6.40
2023-03-07T14:24:43.501Z,7.50
2023-03-07T14:27:16.425Z,8.10
2023-03-07T14:29:51.955Z,7.82
2023-03-07T14:32:31.579Z,6.20
2023-03-07T14:35:03.371Z,5.70
2023-03-07T14:37:35.833Z,6.27
2023-03-07T14:40:37.778Z,6.07
2023-03-07T14:43:28.116Z,14.70
2023-03-07T14:46:36.880Z,9.57
2023-03-07T14:49:20.529Z,5.27
2023-03-07T14:51:52.353Z,6.53
2023-03-07T14:54:30.792Z,5.23
2023-03-07T14:57:02.653Z,6.00
2023-03-07T14:59:34.388Z,6.13
2023-03-07T15:02:17.826Z,5.75
2023-03-07T15:04:54.260Z,5.93
2023-03-07T15:07:26.113Z,5.97
2023-03-07T15:09:57.940Z,6.73
2023-03-07T15:12:31.546Z,6.73
2023-03-07T15:15:05.753Z,8.17
2023-03-07T15:17:43.734Z,5.20
2023-03-07T15:20:23.220Z,4.63
2023-03-07T15:23:04.011Z,5.80
2023-03-07T15:25:38.898Z,7.07
2023-03-07T15:28:23.224Z,8.23
2023-03-07T15:30:55.960Z,11.50
2023-03-07T15:33:30.749Z,5.57
2023-03-07T15:36:12.848Z,5.90
2023-03-07T15:38:50.334Z,5.80
2023-03-07T15:41:34.276Z,5.97
2023-03-07T15:44:11.927Z,6.90
2023-03-07T15:46:47.733Z,11.33
2023-03-07T15:49:26.062Z,5.10
2023-03-07T15:51:59.827Z,8.43
2023-03-07T15:54:36.151Z,8.33
2023-03-07T15:57:23.611Z,7.10
2023-03-07T16:00:02.537Z,5.20
2023-03-07T16:02:52.301Z,7.77
2023-03-07T16:05:24.113Z,6.73
2023-03-07T16:07:57.838Z,6.63
2023-03-07T16:10:31.644Z,5.80
2023-03-07T16:13:03.399Z,7.10
2023-03-07T16:15:35.152Z,7.03
2023-03-07T16:18:07.730Z,8.53
2023-03-07T16:20:39.484Z,7.20
2023-03-07T16:23:13.490Z,6.00
2023-03-07T16:25:45.314Z,7.87
2023-03-07T16:28:17.064Z,9.43
2023-03-07T16:30:48.799Z,6.70
2023-03-07T16:33:20.552Z,8.30
2023-03-07T16:35:52.528Z,8.80
2023-03-07T16:38:24.305Z,8.23
2023-03-07T16:40:57.616Z,7.57
2023-03-07T16:43:38.261Z,8.60
2023-03-07T16:46:18.167Z,10.00
2023-03-07T16:48:49.901Z,9.30
2023-03-07T16:51:25.565Z,8.10
2023-03-07T16:53:59.710Z,12.80
2023-03-07T16:56:36.498Z,10.23
2023-03-07T16:59:17.489Z,10.67
2023-03-07T17:01:51.818Z,11.10
2023-03-07T17:04:23.567Z,9.00
2023-03-07T17:07:04.406Z,11.20
2023-03-07T17:09:36.568Z,9.53
2023-03-07T17:12:08.537Z,8.33
2023-03-07T17:14:40.778Z,9.85
2023-03-07T17:17:19.451Z,7.27
2023-03-07T17:19:51.274Z,9.93
2023-03-07T17:22:23.032Z,7.07
2023-03-07T17:24:54.688Z,7.30
2023-03-07T17:27:26.974Z,9.40
2023-03-07T17:29:58.989Z,12.30
2023-03-07T17:32:30.770Z,10.70
2023-03-07T17:35:02.524Z,10.70
2023-03-07T17:37:34.246Z,7.40
2023-03-07T17:40:10.268Z,7.83
2023-03-07T17:42:43.212Z,9.73
2023-03-07T17:45:14.966Z,8.93
2023-03-07T17:47:54.008Z,14.50
2023-03-07T17:50:25.898Z,8.15
2023-03-07T17:52:58.257Z,10.20
2023-03-07T17:55:30.391Z,8.30
2023-03-07T17:58:02.118Z,8.90
2023-03-07T18:00:33.917Z,7.60
2023-03-07T18:03:05.951Z,9.60
2023-03-07T18:05:39.389Z,8.30
2023-03-07T18:08:11.057Z,13.03
2023-03-07T18:10:43.336Z,8.82
2023-03-07T18:13:15.148Z,7.93
2023-03-07T18:15:48.125Z,13.00
2023-03-07T18:18:19.820Z,9.07
2023-03-07T18:21:06.835Z,9.77
2023-03-07T18:23:39.639Z,13.30
2023-03-07T18:26:13.876Z,7.93
2023-03-07T18:28:47.090Z,6.77
2023-03-07T18:31:28.656Z,7.23
2023-03-07T18:34:02.855Z,7.80
2023-03-07T18:36:34.550Z,9.10
2023-03-07T18:39:06.815Z,8.90
2023-03-07T18:41:38.919Z,8.30
2023-03-07T18:44:10.609Z,8.63
2023-03-07T18:46:42.360Z,11.70
2023-03-07T18:49:14.177Z,14.10
2023-03-07T18:51:46.060Z,16.80
2023-03-07T18:54:18.375Z,13.83
2023-03-07T18:56:50.059Z,9.70
2023-03-07T18:59:21.877Z,17.83
2023-03-07T19:01:53.594Z,11.00
2023-03-07T19:04:25.302Z,10.23
2023-03-07T19:06:58.100Z,12.50
2023-03-07T19:09:31.306Z,10.23
2023-03-07T19:12:03.085Z,12.47
2023-03-07T19:14:34.890Z,13.47
2023-03-07T19:17:06.586Z,10.23
2023-03-07T19:19:38.308Z,10.13
2023-03-07T19:22:10.868Z,12.93
2023-03-07T19:24:44.495Z,14.60
2023-03-07T19:27:16.468Z,10.37
2023-03-07T19:29:48.430Z,12.77
2023-03-07T19:32:20.298Z,16.70
2023-03-07T19:34:51.980Z,9.93
2023-03-07T19:37:23.799Z,11.07
2023-03-07T19:39:55.575Z,11.07
2023-03-07T19:42:27.355Z,9.70
2023-03-07T19:44:59.054Z,9.47
2023-03-07T19:47:30.966Z,13.00
2023-03-07T19:50:03.100Z,10.77
2023-03-07T19:52:34.872Z,12.80
2023-03-07T19:55:07.184Z,9.50
2023-03-07T19:57:38.922Z,13.80
2023-03-07T20:00:11.704Z,13.32
2023-03-07T20:02:43.664Z,14.73
2023-03-07T20:05:16.680Z,18.70
2023-03-07T20:07:48.562Z,12.53
2023-03-07T20:10:20.446Z,15.10
2023-03-07T20:12:53.259Z,25.00
2023-03-07T20:15:24.974Z,19.07
2023-03-07T20:17:57.345Z,10.73
2023-03-07T20:20:29.456Z,14.47
2023-03-07T20:23:01.470Z,8.97
2023-03-07T20:25:33.232Z,11.30
2023-03-07T20:28:06.529Z,8.50
2023-03-07T20:30:40.392Z,8.03
2023-03-07T20:33:12.122Z,7.67
2023-03-07T20:35:44.548Z,9.47
2023-03-07T20:38:16.237Z,7.80
2023-03-07T20:40:48.007Z,8.23
2023-03-07T20:43:19.666Z,10.83
2023-03-07T20:45:51.369Z,8.70
2023-03-07T20:48:23.099Z,17.00
2023-03-07T20:50:54.814Z,8.10
2023-03-07T20:53:26.550Z,6.80
2023-03-07T20:56:05.902Z,8.82
2023-03-07T20:58:37.808Z,10.57
2023-03-07T21:01:11.207Z,7.90
2023-03-07T21:03:43.359Z,6.80
2023-03-07T21:06:16.135Z,7.70
2023-03-07T21:08:48.151Z,7.27
2023-03-07T21:11:21.472Z,12.27
2023-03-07T21:13:53.155Z,7.50
2023-03-07T21:16:27.205Z,7.53
2023-03-07T21:19:01.613Z,8.87
2023-03-07T21:21:35.265Z,9.50
2023-03-07T21:24:07.343Z,6.93
2023-03-07T21:26:39.092Z,9.90
2023-03-07T21:29:11.017Z,7.03
2023-03-07T21:31:42.896Z,10.13
2023-03-07T21:34:15.089Z,8.13
2023-03-07T21:36:47.865Z,10.70
2023-03-07T21:39:19.722Z,8.27
2023-03-07T21:41:51.732Z,6.70
2023-03-07T21:44:23.500Z,10.33
2023-03-07T21:46:55.190Z,9.23
2023-03-07T21:49:26.861Z,7.70
2023-03-07T21:51:58.606Z,6.73
2023-03-07T21:54:30.453Z,10.60
2023-03-07T21:57:04.137Z,7.47
2023-03-07T21:59:36.480Z,11.30
2023-03-07T22:02:10.740Z,9.30
2023-03-07T22:04:42.583Z,8.10
2023-03-07T22:07:14.445Z,9.77
2023-03-07T22:09:46.220Z,11.50
2023-03-07T22:12:17.942Z,8.43
2023-03-07T22:14:49.614Z,8.97
2023-03-07T22:17:21.396Z,9.97
2023-03-07T22:19:53.116Z,11.70
2023-03-07T22:22:24.969Z,12.90
2023-03-07T22:24:56.691Z,21.53
2023-03-07T22:27:28.371Z,13.90
2023-03-07T22:30:00.209Z,13.40
2023-03-07T22:32:32.233Z,11.23
2023-03-07T22:35:04.198Z,10.80
2023-03-07T22:37:36.026Z,13.53
2023-03-07T22:40:08.565Z,11.13
2023-03-07T22:42:40.302Z,12.90
2023-03-07T22:45:12.219Z,10.80
2023-03-07T22:47:43.970Z,14.18
2023-03-07T22:50:16.144Z,14.30
2023-03-07T22:52:47.877Z,14.40
2023-03-07T22:55:19.579Z,13.77
2023-03-07T22:57:51.381Z,16.63
2023-03-07T23:00:23.284Z,11.40
2023-03-07T23:02:54.959Z,12.03
2023-03-07T23:05:26.734Z,12.87
2023-03-07T23:07:59.685Z,16.27
2023-03-07T23:10:32.062Z,12.13
2023-03-07T23:13:03.873Z,17.67
2023-03-07T23:15:40.330Z,20.87
2023-03-07T23:18:12.206Z,11.50
2023-03-07T23:20:43.868Z,14.20
2023-03-07T23:23:15.739Z,14.67
2023-03-07T23:25:47.570Z,14.87
2023-03-07T23:28:19.266Z,20.03
2023-03-07T23:30:51.007Z,10.83
2023-03-07T23:33:23.256Z,15.40
2023-03-07T23:35:59.409Z,17.43
2023-03-07T23:38:31.225Z,16.00
2023-03-07T23:41:02.934Z,17.57
2023-03-07T23:43:34.732Z,14.07
2023-03-07T23:46:06.537Z,11.17
2023-03-07T23:48:38.236Z,15.50
2023-03-07T23:51:10.140Z,16.67
2023-03-07T23:53:41.927Z,18.40
2023-03-07T23:56:13.830Z,15.93
2023-03-07T23:58:49.780Z,12.00
